Time;durP1;ratioP1;P1;durP2;ratioP2;P2;SDS_P1;SDS_P2;PMS_P1;PMS_P2;Temp;Humidity;BMP_temperature;BMP_pressure;BME280_temperature;BME280_humidity;BME280_pressure;Samples;Min_cycle;Max_cycle;Signal;HPM_P1;HPM_P2
2023/06/10 00:01:36;;;;;;;9.82;8.23;;;;;;;20.90;57.99;100184.13;5046297;28;20206;-68
2023/06/10 00:04:02;;;;;;;12.77;7.90;;;;;;;20.89;58.46;100181.47;5049730;28;20219;-68
2023/06/10 00:06:35;;;;;;;11.82;8.38;;;;;;;20.83;58.75;100181.69;5050896;28;20229;-68
2023/06/10 00:09:04;;;;;;;11.40;8.30;;;;;;;20.69;59.01;100183.91;5041497;28;20196;-68
2023/06/10 00:11:32;;;;;;;10.90;8.20;;;;;;;20.64;59.59;100174.16;5042222;28;20517;-68
2023/06/10 00:13:59;;;;;;;11.90;8.73;;;;;;;20.54;59.80;100171.81;5032298;28;20226;-68
2023/06/10 00:16:26;;;;;;;9.77;8.32;;;;;;;20.51;59.80;100167.41;5048472;28;20203;-68
2023/06/10 00:18:55;;;;;;;10.98;8.27;;;;;;;20.58;59.98;100177.06;5047743;28;20195;-68
2023/06/10 00:21:24;;;;;;;11.63;7.75;;;;;;;20.52;59.73;100166.50;5047360;28;20531;-68
2023/06/10 00:23:50;;;;;;;11.55;8.10;;;;;;;20.42;60.56;100161.44;5046940;28;20214;-68
2023/06/10 00:26:17;;;;;;;12.93;9.10;;;;;;;20.43;60.47;100169.47;5049111;28;20207;-68
2023/06/10 00:28:45;;;;;;;10.18;8.27;;;;;;;20.45;60.53;100164.03;5042835;28;20206;-68
2023/06/10 00:31:11;;;;;;;12.50;8.50;;;;;;;20.40;60.63;100168.66;5048928;28;20195;-68
2023/06/10 00:33:37;;;;;;;11.07;8.03;;;;;;;20.31;60.96;100172.47;5047856;28;20324;-68
2023/06/10 00:36:04;;;;;;;10.35;8.40;;;;;;;20.21;61.43;100165.59;5049714;28;20222;-68
2023/06/10 00:38:31;;;;;;;11.70;8.45;;;;;;;20.13;61.57;100168.53;5047096;28;20603;-68
2023/06/10 00:40:58;;;;;;;11.70;8.60;;;;;;;20.18;61.21;100163.00;5050186;28;20297;-68
2023/06/10 00:43:24;;;;;;;10.37;7.70;;;;;;;20.17;61.38;100163.94;5049395;28;20219;-68
2023/06/10 00:45:51;;;;;;;10.23;8.13;;;;;;;20.12;61.45;100173.94;5049601;28;20202;-68
2023/06/10 00:48:18;;;;;;;10.90;8.27;;;;;;;20.03;61.62;100176.00;5036396;28;20210;-68
2023/06/10 00:50:48;;;;;;;9.73;7.50;;;;;;;19.85;62.28;100176.50;5047800;28;20203;-68
2023/06/10 00:53:15;;;;;;;12.00;7.63;;;;;;;19.78;62.44;100176.72;5048754;28;20218;-68
2023/06/10 00:55:41;;;;;;;10.43;8.27;;;;;;;19.76;62.15;100174.06;5047899;28;20576;-68
2023/06/10 00:58:08;;;;;;;11.07;7.47;;;;;;;19.86;61.94;100177.38;5031875;28;20210;-68
2023/06/10 01:00:35;;;;;;;9.43;7.80;;;;;;;19.84;61.95;100177.41;5049877;28;20282;-68
2023/06/10 01:03:07;;;;;;;9.87;7.70;;;;;;;19.77;62.00;100175.81;5049455;28;20218;-68
2023/06/10 01:05:36;;;;;;;8.97;7.90;;;;;;;19.84;61.65;100181.91;5041042;28;20246;-68
2023/06/10 01:08:32;;;;;;;9.73;8.07;;;;;;;19.69;62.25;100177.84;5042645;28;20203;-68
2023/06/10 01:11:01;;;;;;;9.20;7.47;;;;;;;19.64;62.36;100174.41;5047358;28;20217;-68
2023/06/10 01:13:31;;;;;;;10.27;7.63;;;;;;;19.54;62.34;100179.13;5047477;28;20226;-68
2023/06/10 01:15:58;;;;;;;10.93;7.97;;;;;;;19.47;62.89;100181.97;5046856;28;20215;-68
2023/06/10 01:18:31;;;;;;;12.07;8.20;;;;;;;19.47;62.72;100182.88;5047385;28;20210;-68
2023/06/10 01:20:57;;;;;;;9.60;7.60;;;;;;;19.29;63.06;100178.88;5048536;28;20706;-68
2023/06/10 01:23:24;;;;;;;13.77;8.00;;;;;;;19.16;63.66;100182.75;5045703;28;20210;-68
2023/06/10 01:26:02;;;;;;;10.03;7.13;;;;;;;19.01;64.26;100186.72;5043998;28;20572;-68
2023/06/10 01:28:38;;;;;;;10.90;7.47;;;;;;;18.85;64.94;100187.13;5048216;28;20388;-68
2023/06/10 01:31:16;;;;;;;10.83;7.87;;;;;;;18.72;65.98;100189.19;5044554;28;20198;-68
2023/06/10 01:33:47;;;;;;;11.07;7.40;;;;;;;18.59;65.97;100182.31;5045751;28;20240;-68
2023/06/10 01:36:16;;;;;;;9.03;7.87;;;;;;;18.54;66.60;100182.44;5043163;28;20310;-68
2023/06/10 01:38:44;;;;;;;9.50;7.60;;;;;;;18.43;67.00;100187.16;5040767;28;20580;-68
2023/06/10 01:41:13;;;;;;;12.07;7.60;;;;;;;18.35;68.14;100192.66;5039434;28;20230;-68
2023/06/10 01:43:40;;;;;;;9.70;7.37;;;;;;;18.27;67.94;100188.38;5048132;28;20227;-68
2023/06/10 01:46:06;;;;;;;10.80;7.67;;;;;;;18.20;67.93;100197.47;5038233;28;20195;-68
2023/06/10 01:48:33;;;;;;;10.80;7.70;;;;;;;18.13;69.23;100204.75;5046239;28;20758;-68
2023/06/10 01:50:59;;;;;;;9.23;7.93;;;;;;;17.99;69.24;100196.97;5047495;28;20209;-68
2023/06/10 01:53:26;;;;;;;11.23;7.43;;;;;;;17.93;70.04;100198.91;5040682;28;20305;-68
2023/06/10 01:55:52;;;;;;;9.10;7.47;;;;;;;17.84;70.45;100195.50;5047447;28;20218;-68
2023/06/10 01:58:18;;;;;;;9.87;8.00;;;;;;;17.73;71.51;100201.97;5046321;28;20202;-68
2023/06/10 02:00:45;;;;;;;9.03;7.63;;;;;;;17.60;72.02;100201.25;5047351;28;20195;-68
2023/06/10 02:03:12;;;;;;;9.47;7.37;;;;;;;17.45;72.56;100198.88;5046716;28;20298;-68
2023/06/10 02:05:38;;;;;;;9.87;7.33;;;;;;;17.39;73.10;100196.31;5030993;28;20230;-68
2023/06/10 02:08:05;;;;;;;11.53;8.07;;;;;;;17.25;74.42;100199.22;5046930;28;20286;-68
2023/06/10 02:10:31;;;;;;;12.47;7.70;;;;;;;17.14;75.53;100195.81;5044720;28;20294;-68
2023/06/10 02:12:58;;;;;;;10.03;7.60;;;;;;;17.10;75.81;100202.16;5047497;28;20222;-68
2023/06/10 02:15:24;;;;;;;11.97;7.73;;;;;;;17.04;77.15;100199.56;5048199;28;20214;-68
2023/06/10 02:17:51;;;;;;;10.27;7.80;;;;;;;16.98;77.60;100202.34;5048321;28;20286;-68
2023/06/10 02:20:18;;;;;;;9.23;7.67;;;;;;;16.97;78.77;100205.94;5044222;28;20674;-68
2023/06/10 02:22:45;;;;;;;10.80;7.70;;;;;;;16.91;79.22;100201.56;5036895;28;20656;-68
2023/06/10 02:25:11;;;;;;;9.77;8.37;;;;;;;16.90;79.69;100199.81;5037014;28;20214;-68
2023/06/10 02:27:38;;;;;;;11.47;8.07;;;;;;;16.84;80.48;100197.22;5039522;28;20294;-68
2023/06/10 02:30:05;;;;;;;10.60;8.30;;;;;;;16.77;80.45;100201.75;5044164;28;20286;-68
2023/06/10 02:32:31;;;;;;;9.90;8.13;;;;;;;16.82;79.74;100199.03;5046570;28;20203;-68
2023/06/10 02:34:59;;;;;;;10.87;7.70;;;;;;;16.81;79.52;100198.16;5047367;28;20230;-67
2023/06/10 02:37:26;;;;;;;10.07;7.97;;;;;;;16.83;79.40;100199.00;5047472;28;20203;-68
2023/06/10 02:39:52;;;;;;;11.63;8.47;;;;;;;16.77;79.22;100200.88;5042456;28;20199;-68
2023/06/10 02:42:19;;;;;;;10.20;7.40;;;;;;;16.65;79.77;100201.03;5046679;28;20203;-68
2023/06/10 02:44:45;;;;;;;9.17;7.70;;;;;;;16.55;79.63;100210.97;5047107;28;20227;-68
2023/06/10 02:47:11;;;;;;;9.60;7.50;;;;;;;16.45;80.06;100207.53;5047578;28;20195;-68
2023/06/10 02:49:38;;;;;;;11.23;8.10;;;;;;;16.36;81.04;100209.44;5046474;28;20211;-68
2023/06/10 02:52:06;;;;;;;10.67;7.73;;;;;;;16.31;81.38;100206.81;5046614;28;20195;-67
2023/06/10 02:54:33;;;;;;;9.60;8.03;;;;;;;16.24;81.74;100210.47;5046779;28;20225;-68
2023/06/10 02:56:59;;;;;;;12.73;8.07;;;;;;;16.17;82.61;100211.47;5046593;28;20306;-68
2023/06/10 02:59:28;;;;;;;10.70;8.40;;;;;;;16.25;83.27;100213.13;5045051;28;20226;-68
2023/06/10 03:01:54;;;;;;;11.93;8.27;;;;;;;16.26;83.49;100212.22;5047859;28;20203;-68
2023/06/10 03:04:23;;;;;;;9.67;7.97;;;;;;;16.22;83.73;100213.19;5047035;28;20229;-68
2023/06/10 03:06:50;;;;;;;10.43;8.37;;;;;;;16.23;85.31;100216.72;5045079;28;20245;-68
2023/06/10 03:09:16;;;;;;;13.37;8.20;;;;;;;16.18;85.92;100214.13;5048166;28;20208;-67
2023/06/10 03:11:42;;;;;;;11.27;8.13;;;;;;;16.24;86.43;100215.81;5041246;28;20203;-68
2023/06/10 03:14:11;;;;;;;9.17;7.70;;;;;;;16.22;86.94;100214.97;5047836;28;20222;-67
2023/06/10 03:16:42;;;;;;;11.83;7.77;;;;;;;16.29;87.13;100204.16;5041201;28;20305;-67
2023/06/10 03:19:08;;;;;;;10.77;8.63;;;;;;;16.29;87.52;100206.84;5050111;28;20207;-68
2023/06/10 03:21:37;;;;;;;10.87;8.60;;;;;;;16.28;87.92;100212.22;5050961;28;20531;-68
2023/06/10 03:24:04;;;;;;;11.77;8.43;;;;;;;16.22;88.23;100212.28;5046443;28;20250;-68
2023/06/10 03:26:30;;;;;;;11.33;8.13;;;;;;;16.20;88.06;100212.31;5047400;28;20198;-67
2023/06/10 03:28:57;;;;;;;10.83;8.57;;;;;;;16.18;87.76;100214.13;5049180;28;20578;-68
2023/06/10 03:31:24;;;;;;;9.50;8.07;;;;;;;16.15;88.02;100214.16;5049749;28;20241;-68
2023/06/10 03:33:51;;;;;;;11.57;8.13;;;;;;;16.14;87.82;100217.72;5046295;28;20221;-67
2023/06/10 03:36:17;;;;;;;11.77;8.60;;;;;;;16.16;88.85;100213.25;5050101;28;20221;-67
2023/06/10 03:38:44;;;;;;;8.67;7.53;;;;;;;16.16;89.24;100220.38;5050387;28;20205;-68
2023/06/10 03:41:10;;;;;;;10.83;8.57;;;;;;;16.17;89.94;100217.69;5030806;28;20632;-68
2023/06/10 03:43:38;;;;;;;11.40;7.97;;;;;;;16.19;89.57;100220.34;5043675;28;20229;-68
2023/06/10 03:46:05;;;;;;;13.57;8.80;;;;;;;16.22;89.57;100221.19;5033487;28;20671;-67
2023/06/10 03:48:31;;;;;;;10.87;8.63;;;;;;;16.26;89.34;100220.25;5049697;28;20203;-68
2023/06/10 03:50:58;;;;;;;10.13;8.10;;;;;;;16.33;89.07;100225.50;5049909;28;20261;-67
2023/06/10 03:53:24;;;;;;;11.70;8.70;;;;;;;16.44;88.16;100226.28;5045142;28;20254;-67
2023/06/10 03:55:51;;;;;;;11.40;8.10;;;;;;;16.52;85.47;100227.06;5048990;28;20710;-67
2023/06/10 03:58:18;;;;;;;10.37;8.20;;;;;;;16.57;84.66;100233.22;5048678;28;20201;-67
2023/06/10 04:00:45;;;;;;;9.33;7.53;;;;;;;16.55;84.80;100235.91;5046141;28;20199;-67
2023/06/10 04:03:14;;;;;;;10.57;7.80;;;;;;;16.56;84.04;100236.81;5049175;28;20215;-68
2023/06/10 04:05:43;;;;;;;16.37;7.60;;;;;;;16.55;83.83;100243.06;5045977;28;20203;-67
2023/06/10 04:08:10;;;;;;;10.10;7.90;;;;;;;16.60;82.50;100241.19;5041014;28;20199;-67
2023/06/10 04:10:37;;;;;;;8.63;7.37;;;;;;;16.56;82.52;100232.34;5022041;28;20211;-67
2023/06/10 04:13:03;;;;;;;11.20;8.43;;;;;;;16.56;83.11;100240.34;5035431;28;20230;-67
2023/06/10 04:15:32;;;;;;;10.87;8.00;;;;;;;16.78;86.06;100235.63;5023522;28;20258;-67
2023/06/10 04:18:00;;;;;;;10.77;8.13;;;;;;;16.79;86.62;100232.03;5039179;28;20565;-67
2023/06/10 04:20:27;;;;;;;10.50;7.53;;;;;;;16.89;85.31;100235.47;5036835;28;20207;-67
2023/06/10 04:22:53;;;;;;;14.60;8.20;;;;;;;17.01;85.71;100234.41;5034451;28;20226;-68
2023/06/10 04:25:20;;;;;;;12.70;9.00;;;;;;;17.05;85.22;100237.00;5033446;28;20238;-67
2023/06/10 04:27:46;;;;;;;12.17;8.20;;;;;;;17.08;85.65;100244.09;5038117;28;20203;-67
2023/06/10 04:30:13;;;;;;;10.30;8.00;;;;;;;17.19;85.11;100244.81;5037168;28;20708;-68
2023/06/10 04:32:39;;;;;;;10.07;7.93;;;;;;;17.23;84.31;100244.75;5038927;28;20211;-68
2023/06/10 04:35:07;;;;;;;11.40;8.03;;;;;;;17.31;84.58;100257.13;5040032;28;20292;-68
2023/06/10 04:37:33;;;;;;;10.70;8.13;;;;;;;17.42;84.33;100252.47;5038267;28;20197;-68
2023/06/10 04:40:00;;;;;;;12.90;8.60;;;;;;;17.47;84.23;100254.16;5039822;28;20662;-68
2023/06/10 04:42:26;;;;;;;10.80;8.00;;;;;;;17.60;85.02;100256.63;5034305;28;21642;-68
2023/06/10 04:44:53;;;;;;;12.63;8.93;;;;;;;17.64;85.29;100253.00;5035850;28;20202;-68
2023/06/10 04:47:20;;;;;;;15.53;9.23;;;;;;;17.78;86.49;100259.03;5033056;28;20196;-68
2023/06/10 04:49:46;;;;;;;11.83;9.07;;;;;;;17.92;86.18;100258.75;5034770;28;20210;-68
2023/06/10 04:52:13;;;;;;;10.93;8.80;;;;;;;17.97;86.07;100259.56;5036982;28;20286;-68
2023/06/10 04:54:43;;;;;;;12.17;9.17;;;;;;;18.05;85.78;100263.88;5033734;28;20222;-68
2023/06/10 04:57:11;;;;;;;14.87;9.27;;;;;;;18.12;85.27;100260.16;5032479;28;20317;-68
2023/06/10 04:59:38;;;;;;;11.90;9.00;;;;;;;18.21;85.24;100264.47;5042144;28;20203;-68
2023/06/10 05:02:05;;;;;;;9.47;8.47;;;;;;;18.29;85.00;100265.19;5038974;28;20199;-67
2023/06/10 05:04:31;;;;;;;14.00;9.10;;;;;;;18.40;83.83;100262.28;5034616;28;20211;-68
2023/06/10 05:06:58;;;;;;;12.40;8.87;;;;;;;18.62;81.14;100249.34;5035589;28;20283;-68
2023/06/10 05:09:26;;;;;;;12.93;9.43;;;;;;;18.81;81.13;100257.84;5037891;28;20682;-68
2023/06/10 05:11:53;;;;;;;13.80;8.90;;;;;;;18.85;80.53;100259.59;5041387;28;20191;-68
2023/06/10 05:14:20;;;;;;;13.00;9.20;;;;;;;18.89;77.85;100263.97;5066852;22;20229;-67
2023/06/10 05:16:50;;;;;;;10.87;7.63;;;;;;;19.00;75.74;100261.91;5073659;28;20214;-68
2023/06/10 05:19:17;;;;;;;10.53;8.10;;;;;;;19.09;72.93;100251.84;5072648;28;20201;-68
2023/06/10 05:21:44;;;;;;;9.03;7.43;;;;;;;19.22;72.84;100256.94;5073477;28;20190;-68
2023/06/10 05:24:11;;;;;;;10.23;7.43;;;;;;;19.36;72.37;100260.16;5066578;28;20226;-68
2023/06/10 05:26:38;;;;;;;8.60;7.00;;;;;;;19.55;72.23;100256.09;5055869;28;20692;-68
2023/06/10 05:29:05;;;;;;;11.80;8.40;;;;;;;19.77;72.05;100261.81;5053564;28;20313;-68
2023/06/10 05:31:31;;;;;;;11.23;7.32;;;;;;;20.11;70.41;100260.91;5039768;28;20199;-68
2023/06/10 05:33:58;;;;;;;10.10;7.60;;;;;;;20.19;69.75;100257.09;5053372;28;20219;-68
2023/06/10 05:36:27;;;;;;;10.93;8.18;;;;;;;20.32;70.39;100261.19;5058376;28;20727;-67
2023/06/10 05:38:53;;;;;;;9.20;7.50;;;;;;;20.43;71.26;100254.66;5065418;28;20248;-67
2023/06/10 05:41:21;;;;;;;11.00;7.80;;;;;;;20.56;70.58;100253.38;5062956;28;20281;-68
2023/06/10 05:43:48;;;;;;;10.32;7.63;;;;;;;20.70;69.76;100264.59;5067000;28;20769;-68
2023/06/10 05:46:14;;;;;;;10.90;7.88;;;;;;;20.90;67.98;100253.25;5064875;28;20589;-67
2023/06/10 05:48:41;;;;;;;8.68;7.40;;;;;;;21.20;66.43;100257.63;5066346;28;20673;-68
2023/06/10 05:51:07;;;;;;;9.50;6.85;;;;;;;21.45;63.36;100260.44;5065090;28;20194;-68
2023/06/10 05:53:33;;;;;;;11.98;7.25;;;;;;;21.69;62.16;100265.97;5066525;28;20241;-68
2023/06/10 05:56:00;;;;;;;12.57;7.50;;;;;;;21.98;59.10;100256.84;5065979;28;20225;-67
2023/06/10 05:58:26;;;;;;;10.50;6.70;;;;;;;22.16;55.27;100267.03;5061683;28;20194;-68
2023/06/10 06:00:53;;;;;;;10.75;6.70;;;;;;;22.28;54.80;100266.56;5064358;28;20200;-68
2023/06/10 06:03:19;;;;;;;9.63;6.57;;;;;;;22.36;55.09;100272.56;5066970;28;20224;-69
2023/06/10 06:05:46;;;;;;;9.07;6.45;;;;;;;22.43;53.23;100266.03;5049886;28;20194;-67
2023/06/10 06:08:18;;;;;;;7.78;6.53;;;;;;;22.48;53.09;100266.72;5060847;28;20638;-67
2023/06/10 06:10:45;;;;;;;8.82;6.75;;;;;;;22.58;51.83;100277.16;5059202;28;20570;-67
2023/06/10 06:13:12;;;;;;;11.13;6.80;;;;;;;22.60;52.42;100268.06;5055157;28;20199;-68
2023/06/10 06:15:38;;;;;;;9.15;7.18;;;;;;;22.71;51.46;100267.66;5055731;28;20244;-67
2023/06/10 06:18:04;;;;;;;9.50;6.63;;;;;;;22.87;52.04;100263.47;5057628;28;20234;-68
2023/06/10 06:20:31;;;;;;;13.43;7.10;;;;;;;23.08;51.46;100262.59;5051055;28;20923;-67
2023/06/10 06:22:57;;;;;;;8.10;6.78;;;;;;;23.23;51.00;100255.72;5057625;28;20198;-67
2023/06/10 06:25:24;;;;;;;9.57;7.25;;;;;;;23.39;48.42;100264.06;5041641;28;20199;-68
2023/06/10 06:27:50;;;;;;;12.65;7.07;;;;;;;23.53;48.22;100255.38;5059421;28;20723;-68
2023/06/10 06:30:17;;;;;;;7.95;6.47;;;;;;;23.59;48.21;100258.72;5051698;28;20199;-68
2023/06/10 06:32:43;;;;;;;8.25;6.80;;;;;;;23.53;47.79;100261.66;5062904;28;20301;-68
2023/06/10 06:35:10;;;;;;;8.18;7.10;;;;;;;23.56;47.75;100255.28;5055889;28;20299;-68
2023/06/10 06:37:37;;;;;;;10.52;7.03;;;;;;;23.56;48.00;100260.69;5061290;28;20321;-68
2023/06/10 06:40:03;;;;;;;8.57;6.93;;;;;;;23.63;47.45;100259.50;5054977;28;20203;-68
2023/06/10 06:42:30;;;;;;;10.65;7.15;;;;;;;23.73;47.98;100264.47;5055952;28;20199;-68
2023/06/10 06:44:56;;;;;;;9.60;6.78;;;;;;;23.86;47.52;100266.63;5059720;28;20221;-68
2023/06/10 06:47:23;;;;;;;8.25;6.85;;;;;;;23.96;47.42;100279.69;5042865;28;20643;-68
2023/06/10 06:49:50;;;;;;;7.97;6.60;;;;;;;24.07;46.59;100276.53;5063478;28;20198;-68
2023/06/10 06:52:19;;;;;;;10.27;7.30;;;;;;;24.25;47.09;100281.13;5059858;28;20724;-67
2023/06/10 06:54:45;;;;;;;9.13;6.93;;;;;;;24.41;45.35;100283.16;5063023;28;20271;-68
2023/06/10 06:57:12;;;;;;;10.07;7.47;;;;;;;24.53;45.29;100280.78;5057741;28;20222;-68
2023/06/10 06:59:38;;;;;;;8.98;7.30;;;;;;;24.79;44.51;100275.97;5067060;28;20197;-68
2023/06/10 07:02:05;;;;;;;8.00;7.20;;;;;;;24.95;43.32;100277.91;5068111;28;20218;-68
2023/06/10 07:04:32;;;;;;;10.10;7.85;;;;;;;24.95;43.59;100275.19;5064555;28;20219;-68
2023/06/10 07:06:58;;;;;;;8.23;7.25;;;;;;;25.36;42.37;100283.19;5064377;28;20222;-68
2023/06/10 07:09:24;;;;;;;10.13;7.07;;;;;;;27.10;38.31;100276.75;5062153;28;20191;-68
2023/06/10 07:11:51;;;;;;;11.77;6.80;;;;;;;29.51;33.44;100286.47;5066074;28;20205;-68
2023/06/10 07:14:17;;;;;;;9.63;7.07;;;;;;;31.17;30.23;100274.81;5060219;28;20241;-68
2023/06/10 07:16:45;;;;;;;10.13;6.82;;;;;;;32.72;28.24;100282.00;5063675;28;20563;-68
2023/06/10 07:19:11;;;;;;;14.00;6.78;;;;;;;33.99;26.34;100287.97;5063447;28;20293;-68
2023/06/10 07:21:38;;;;;;;10.60;6.55;;;;;;;34.13;25.73;100290.44;5060947;28;20190;-68
2023/06/10 07:24:04;;;;;;;9.50;6.72;;;;;;;33.86;25.28;100290.03;5061162;28;20635;-68
2023/06/10 07:26:31;;;;;;;7.05;6.35;;;;;;;33.73;25.83;100292.94;5065376;28;20244;-68
2023/06/10 07:28:57;;;;;;;9.98;7.25;;;;;;;34.00;25.50;100286.09;5064642;28;20194;-68
2023/06/10 07:31:24;;;;;;;9.80;7.30;;;;;;;34.06;25.74;100289.22;5062379;28;20197;-68
2023/06/10 07:33:51;;;;;;;12.35;7.03;;;;;;;33.84;25.53;100292.91;5063159;28;20310;-68
2023/06/10 07:36:17;;;;;;;10.43;7.43;;;;;;;33.73;25.42;100292.06;5058520;28;20288;-68
2023/06/10 07:38:44;;;;;;;9.77;6.93;;;;;;;34.55;24.75;100301.47;5051913;28;20199;-66
2023/06/10 07:41:11;;;;;;;8.60;6.93;;;;;;;34.89;24.84;100287.50;5059915;28;20205;-70
2023/06/10 07:43:38;;;;;;;8.57;6.90;;;;;;;34.91;24.15;100296.50;5044904;28;20615;-66
2023/06/10 07:46:05;;;;;;;9.38;7.15;;;;;;;34.95;24.65;100295.19;5061483;28;20217;-66
2023/06/10 07:48:32;;;;;;;9.90;7.13;;;;;;;35.06;24.55;100295.09;5060889;28;20203;-66
2023/06/10 07:50:58;;;;;;;7.72;6.78;;;;;;;35.06;23.80;100293.22;5047892;28;20292;-66
2023/06/10 07:53:24;;;;;;;7.57;6.80;;;;;;;34.33;24.66;100298.81;5061712;28;20296;-66
2023/06/10 07:55:51;;;;;;;8.77;6.70;;;;;;;33.78;25.29;100290.66;5061528;28;20195;-68
2023/06/10 07:58:17;;;;;;;8.13;7.25;;;;;;;33.21;27.34;100282.63;5058061;28;20341;-69
2023/06/10 08:00:44;;;;;;;7.70;6.90;;;;;;;33.38;26.26;100282.16;5046480;28;20198;-68
2023/06/10 08:03:10;;;;;;;9.68;6.93;;;;;;;33.40;26.24;100285.66;5059930;28;20281;-68
2023/06/10 08:05:37;;;;;;;8.77;7.35;;;;;;;33.65;26.57;100284.47;5061130;28;20194;-69
2023/06/10 08:08:03;;;;;;;8.68;7.03;;;;;;;33.94;25.79;100276.50;5058424;28;20669;-69
2023/06/10 08:10:30;;;;;;;8.65;7.63;;;;;;;33.17;26.70;100284.75;5059651;28;20815;-68
2023/06/10 08:12:57;;;;;;;8.35;7.25;;;;;;;33.19;26.84;100284.63;5063674;28;20639;-68
2023/06/10 08:15:23;;;;;;;9.23;7.40;;;;;;;32.70;27.31;100285.84;5061035;28;20202;-69
2023/06/10 08:17:50;;;;;;;10.20;7.90;;;;;;;31.43;29.47;100281.97;5048209;28;20217;-69
2023/06/10 08:20:17;;;;;;;8.05;7.25;;;;;;;31.12;29.92;100282.47;5058407;28;20210;-67
2023/06/10 08:22:44;;;;;;;9.82;7.80;;;;;;;31.47;30.04;100280.75;5058733;28;20707;-68
2023/06/10 08:25:10;;;;;;;11.23;8.35;;;;;;;31.53;30.25;100275.81;5063481;28;20220;-69
2023/06/10 08:27:37;;;;;;;10.52;7.85;;;;;;;30.61;30.65;100288.00;5062287;28;20281;-67
2023/06/10 08:30:04;;;;;;;10.52;7.85;;;;;;;30.06;32.45;100286.38;5062002;28;20190;-67
2023/06/10 08:32:30;;;;;;;10.43;7.75;;;;;;;29.75;33.36;100284.84;5059330;28;20198;-67
2023/06/10 08:34:56;;;;;;;9.73;8.23;;;;;;;29.80;33.51;100288.13;5061898;28;20222;-67
2023/06/10 08:37:24;;;;;;;9.02;8.00;;;;;;;28.95;34.43;100286.47;5061923;28;20210;-67
2023/06/10 08:39:50;;;;;;;8.23;7.30;;;;;;;28.92;35.23;100288.50;5062191;28;20667;-68
2023/06/10 08:42:27;;;;;;;9.13;7.68;;;;;;;28.79;35.28;100287.50;5041943;28;20202;-68
2023/06/10 08:44:56;;;;;;;11.13;7.70;;;;;;;28.96;34.89;100290.94;5063193;28;20221;-67
2023/06/10 08:47:24;;;;;;;11.00;7.63;;;;;;;28.89;35.22;100281.41;5059819;28;20197;-67
2023/06/10 08:49:53;;;;;;;11.55;7.45;;;;;;;28.96;34.54;100293.66;5047100;28;20208;-67
2023/06/10 08:52:20;;;;;;;8.32;7.18;;;;;;;29.18;34.24;100293.13;5057725;28;20234;-68
2023/06/10 08:55:02;;;;;;;11.57;7.60;;;;;;;29.44;33.94;100288.75;5042566;28;20225;-68
2023/06/10 08:57:30;;;;;;;11.35;7.20;;;;;;;29.40;33.43;100286.28;5058292;28;20246;-68
2023/06/10 08:59:57;;;;;;;8.30;7.50;;;;;;;29.17;32.76;100283.22;5060285;28;20204;-68
2023/06/10 09:02:24;;;;;;;8.77;7.68;;;;;;;28.93;34.19;100273.91;5042896;28;20567;-68
2023/06/10 09:04:51;;;;;;;9.35;7.38;;;;;;;28.81;33.86;100283.69;5063216;28;20225;-68
2023/06/10 09:07:18;;;;;;;10.00;7.63;;;;;;;28.62;34.85;100280.41;5057628;28;20661;-67
2023/06/10 09:09:45;;;;;;;8.70;7.00;;;;;;;28.98;34.09;100279.94;5061785;28;20221;-68
2023/06/10 09:12:15;;;;;;;8.32;7.35;;;;;;;29.14;33.66;100271.63;5056976;28;20307;-68
2023/06/10 09:14:42;;;;;;;10.88;7.30;;;;;;;29.27;33.65;100270.75;5044198;28;20268;-69
2023/06/10 09:17:09;;;;;;;10.48;7.35;;;;;;;29.44;32.90;100282.41;5058014;28;20214;-67
2023/06/10 09:19:38;;;;;;;9.15;7.50;;;;;;;29.28;32.63;100261.56;5061116;28;20194;-67
2023/06/10 09:22:04;;;;;;;8.02;7.22;;;;;;;29.41;32.94;100266.22;5061334;28;20190;-67
2023/06/10 09:24:32;;;;;;;9.48;7.75;;;;;;;29.09;33.34;100271.94;5051912;28;20219;-67
2023/06/10 09:27:08;;;;;;;9.88;7.55;;;;;;;28.85;33.65;100265.34;5064618;28;20194;-67
2023/06/10 09:29:52;;;;;;;8.57;7.72;;;;;;;28.86;34.63;100267.09;5065046;28;20197;-67
2023/06/10 09:32:19;;;;;;;9.23;7.03;;;;;;;28.88;34.00;100260.56;5065223;28;20225;-67
2023/06/10 09:34:46;;;;;;;7.72;6.93;;;;;;;29.17;33.94;100255.06;5057323;28;20656;-66
2023/06/10 09:37:13;;;;;;;11.05;7.88;;;;;;;29.36;33.86;100263.78;5041660;28;20218;-66
2023/06/10 09:39:40;;;;;;;15.82;7.53;;;;;;;29.29;34.31;100260.59;5046445;28;20290;-66
2023/06/10 09:42:20;;;;;;;8.43;7.20;;;;;;;29.12;34.84;100271.72;5062202;28;20212;-66
2023/06/10 09:44:51;;;;;;;8.95;7.20;;;;;;;29.39;33.99;100265.44;5063037;28;20237;-66
2023/06/10 09:47:22;;;;;;;8.75;7.13;;;;;;;29.60;33.51;100259.44;5046661;28;20198;-66
2023/06/10 09:49:50;;;;;;;10.05;7.38;;;;;;;29.54;33.29;100259.84;5069029;28;20685;-67
2023/06/10 09:52:23;;;;;;;8.13;7.32;;;;;;;29.49;33.67;100258.41;5066182;28;20215;-67
2023/06/10 09:54:52;;;;;;;8.65;7.20;;;;;;;29.75;34.00;100254.81;5065894;28;20225;-68
2023/06/10 09:57:19;;;;;;;8.15;7.35;;;;;;;29.79;33.01;100255.47;5067496;28;20209;-66
2023/06/10 09:59:46;;;;;;;8.27;7.35;;;;;;;29.56;33.41;100255.16;5068049;28;20249;-66
2023/06/10 10:02:17;;;;;;;9.45;7.65;;;;;;;29.29;34.35;100259.72;5066114;28;20365;-67
2023/06/10 10:04:44;;;;;;;11.13;7.25;;;;;;;29.07;34.19;100253.91;5057779;28;20692;-67
2023/06/10 10:07:11;;;;;;;9.30;7.60;;;;;;;29.07;35.09;100262.09;5069389;28;20197;-66
2023/06/10 10:09:39;;;;;;;9.00;7.55;;;;;;;29.23;35.39;100254.69;5068260;28;20205;-66
2023/06/10 10:12:15;;;;;;;10.93;7.30;;;;;;;29.28;34.58;100256.13;5069254;28;20202;-65
2023/06/10 10:14:46;;;;;;;9.95;7.43;;;;;;;29.51;34.46;100251.88;5051034;28;20718;-67
2023/06/10 10:17:15;;;;;;;10.27;7.30;;;;;;;29.36;33.51;100258.34;5047347;28;20292;-66
2023/06/10 10:19:56;;;;;;;9.13;7.18;;;;;;;29.49;33.58;100259.28;5047662;28;20195;-67
2023/06/10 10:22:26;;;;;;;9.52;7.38;;;;;;;29.75;33.98;100262.13;5045369;28;20581;-67
2023/06/10 10:24:57;;;;;;;7.72;6.95;;;;;;;30.04;33.14;100257.44;5051588;28;20666;-66
2023/06/10 10:27:48;;;;;;;9.05;7.13;;;;;;;30.08;33.52;100251.66;5048760;28;20195;-66
2023/06/10 10:30:17;;;;;;;7.43;6.63;;;;;;;30.31;33.54;100247.28;5048692;28;20202;-67
2023/06/10 10:33:01;;;;;;;8.43;6.60;;;;;;;30.28;33.07;100255.69;5042611;28;20671;-67
2023/06/10 10:35:28;;;;;;;7.88;7.07;;;;;;;30.18;32.86;100254.59;5049422;28;20253;-66
2023/06/10 10:37:55;;;;;;;7.72;6.90;;;;;;;30.20;33.60;100252.63;5045575;28;20535;-66
2023/06/10 10:40:22;;;;;;;8.23;6.53;;;;;;;30.47;33.65;100245.22;5047316;28;20199;-66
2023/06/10 10:42:52;;;;;;;8.50;7.60;;;;;;;30.17;32.91;100263.78;5050350;28;20191;-66
2023/06/10 10:45:21;;;;;;;11.00;7.60;;;;;;;29.78;34.05;100251.88;5049257;28;20210;-66
2023/06/10 10:47:52;;;;;;;8.63;6.80;;;;;;;30.01;33.81;100246.66;5041349;28;20199;-66
2023/06/10 10:50:20;;;;;;;8.98;7.15;;;;;;;30.30;33.54;100239.19;5045734;28;20198;-66
2023/06/10 10:53:00;;;;;;;8.70;7.28;;;;;;;30.55;33.61;100237.34;5049026;28;20221;-66
2023/06/10 10:55:27;;;;;;;8.38;6.72;;;;;;;29.89;32.89;100243.81;5053141;28;20290;-66
2023/06/10 10:58:05;;;;;;;7.78;5.95;;;;;;;29.63;32.82;100250.19;5050591;28;20277;-66
2023/06/10 11:00:34;;;;;;;8.93;6.55;;;;;;;29.40;34.44;100229.84;5047408;28;20198;-67
2023/06/10 11:03:03;;;;;;;9.88;6.97;;;;;;;29.51;33.26;100240.94;5043978;28;20206;-66
2023/06/10 11:05:41;;;;;;;10.02;7.03;;;;;;;29.91;33.51;100233.66;5048048;28;20206;-66
2023/06/10 11:08:09;;;;;;;8.13;6.80;;;;;;;30.28;32.38;100225.63;5046501;28;20191;-66
2023/06/10 11:10:54;;;;;;;7.30;6.45;;;;;;;30.38;32.22;100237.66;5048752;28;20210;-66
2023/06/10 11:16:04;;;;;;;8.63;6.78;;;;;;;30.39;32.75;100231.19;5076758;28;20213;-68
2023/06/10 11:18:38;;;;;;;7.45;6.65;;;;;;;30.48;31.10;100238.78;5084337;28;20304;-67
2023/06/10 11:21:05;;;;;;;11.10;7.78;;;;;;;30.35;31.71;100220.59;5080823;28;20224;-68
2023/06/10 11:23:32;;;;;;;7.43;6.55;;;;;;;30.24;31.87;100224.09;5079716;28;20731;-67
2023/06/10 11:26:31;;;;;;;8.05;6.53;;;;;;;30.63;32.85;100225.88;5065924;28;20294;-67
2023/06/10 11:28:58;;;;;;;9.40;6.68;;;;;;;30.66;31.65;100227.50;5063514;28;20201;-68